Time;durP1;ratioP1;P1;durP2;ratioP2;P2;SDS_P1;SDS_P2;PMS_P1;PMS_P2;Temp;Humidity;BMP_temperature;BMP_pressure;BME280_temperature;BME280_humidity;BME280_pressure;Samples;Min_cycle;Max_cycle;Signal;HPM_P1;HPM_P2
2023/01/21 10:13:02;;;;;;;30.23;27.33;;;0.40;99.90;;;;;;5126295;27;20562;-80
2023/01/21 10:15:46;;;;;;;28.40;25.40;;;1.60;99.90;;;;;;5126525;28;20449;-80
2023/01/21 10:18:16;;;;;;;31.63;27.27;;;1.60;99.90;;;;;;5126680;27;20464;-81
2023/01/21 10:20:48;;;;;;;34.00;27.83;;;1.40;99.90;;;;;;5126215;27;20425;-81
2023/01/21 10:23:18;;;;;;;29.50;26.40;;;1.50;99.90;;;;;;5126479;27;20459;-80
2023/01/21 10:25:47;;;;;;;30.57;27.07;;;1.40;99.90;;;;;;5126436;27;20451;-81
2023/01/21 10:28:21;;;;;;;30.67;27.37;;;1.40;99.90;;;;;;5126433;27;20444;-80
2023/01/21 10:30:50;;;;;;;31.00;25.90;;;1.50;99.90;;;;;;5126197;27;20517;-80
2023/01/21 10:33:20;;;;;;;33.70;27.33;;;1.50;99.90;;;;;;5126314;28;20453;-82
2023/01/21 10:36:02;;;;;;;31.73;26.93;;;1.40;99.90;;;;;;5126181;27;20449;-81
2023/01/21 10:38:38;;;;;;;29.27;26.40;;;1.40;99.90;;;;;;5126037;27;20449;-81
2023/01/21 10:41:17;;;;;;;31.90;27.57;;;1.60;99.90;;;;;;5125641;27;20444;-81
2023/01/21 10:43:51;;;;;;;30.30;25.70;;;1.60;99.90;;;;;;5126035;27;20944;-81
2023/01/21 10:46:27;;;;;;;28.90;25.93;;;1.60;99.90;;;;;;5125905;28;20445;-81
2023/01/21 10:49:01;;;;;;;27.60;24.70;;;1.60;99.90;;;;;;5125595;27;21067;-80
2023/01/21 10:51:34;;;;;;;40.07;28.10;;;1.80;99.90;;;;;;5125688;27;21017;-81
2023/01/21 10:54:12;;;;;;;32.60;25.37;;;1.80;99.90;;;;;;5126049;28;20448;-80
2023/01/21 10:56:46;;;;;;;28.73;25.83;;;1.70;99.90;;;;;;5125400;27;20444;-81
2023/01/21 10:59:18;;;;;;;29.03;26.03;;;1.70;99.90;;;;;;5125486;27;20451;-81
2023/01/21 11:01:48;;;;;;;27.83;24.63;;;1.80;99.90;;;;;;5125735;28;20815;-81
2023/01/21 11:04:19;;;;;;;31.00;26.73;;;1.90;99.90;;;;;;5125935;27;20445;-82
2023/01/21 11:06:49;;;;;;;28.80;26.00;;;2.00;99.90;;;;;;5125546;27;20464;-82
2023/01/21 11:09:16;;;;;;;31.40;28.10;;;1.90;99.90;;;;;;5125915;27;20451;-82
2023/01/21 11:11:42;;;;;;;29.70;25.57;;;2.00;99.90;;;;;;5122142;27;20855;-81
2023/01/21 11:14:09;;;;;;;29.83;26.70;;;1.90;99.90;;;;;;5111309;27;20449;-82
2023/01/21 11:16:45;;;;;;;27.30;24.63;;;1.90;99.90;;;;;;5111549;27;20522;-82
2023/01/21 11:19:14;;;;;;;27.63;24.93;;;1.80;99.90;;;;;;5111657;28;20445;-83
2023/01/21 11:21:41;;;;;;;25.50;22.80;;;1.70;99.90;;;;;;5111419;28;20480;-82
2023/01/21 11:24:22;;;;;;;32.47;26.30;;;1.60;99.90;;;;;;5111969;28;21003;-83
2023/01/21 11:26:51;;;;;;;28.30;25.37;;;1.60;99.90;;;;;;5111883;27;20844;-81
2023/01/21 11:29:20;;;;;;;28.73;25.73;;;1.60;99.90;;;;;;5112777;28;20826;-81
2023/01/21 11:31:50;;;;;;;34.50;27.30;;;1.50;99.90;;;;;;5111866;28;20481;-81
2023/01/21 11:34:18;;;;;;;29.77;26.23;;;1.50;99.90;;;;;;5111945;27;20445;-82
2023/01/21 11:36:57;;;;;;;30.33;25.57;;;1.60;99.90;;;;;;5111885;28;20450;-82
2023/01/21 11:39:24;;;;;;;27.47;23.90;;;1.60;99.90;;;;;;5111394;28;20449;-81
2023/01/21 11:41:52;;;;;;;29.60;26.67;;;1.70;99.90;;;;;;5111479;28;20440;-81
2023/01/21 11:44:20;;;;;;;26.43;23.93;;;1.60;99.90;;;;;;5111741;28;20458;-81
2023/01/21 11:46:48;;;;;;;30.47;25.67;;;1.70;99.90;;;;;;5114254;28;20450;-81
2023/01/21 11:49:28;;;;;;;29.33;24.70;;;1.90;99.90;;;;;;5123088;28;20453;-81
2023/01/21 11:52:13;;;;;;;26.40;23.93;;;1.80;99.90;;;;;;5121370;28;21015;-78
2023/01/21 11:54:40;;;;;;;27.77;24.90;;;1.60;99.90;;;;;;5123399;28;20468;-82
2023/01/21 11:57:20;;;;;;;26.97;24.17;;;1.60;99.90;;;;;;5127992;28;20506;-80
2023/01/21 11:59:49;;;;;;;23.80;21.30;;;1.70;99.90;;;;;;5125774;28;20433;-81
2023/01/21 12:02:20;;;;;;;35.30;24.80;;;1.80;99.90;;;;;;5123208;28;20442;-81
2023/01/21 12:04:50;;;;;;;28.43;23.70;;;1.80;99.90;;;;;;5123935;28;20479;-79
2023/01/21 12:07:21;;;;;;;25.00;22.50;;;1.80;99.90;;;;;;5123375;28;20476;-80
2023/01/21 12:09:50;;;;;;;25.13;22.60;;;1.80;99.90;;;;;;5124589;28;20448;-81
2023/01/21 12:12:31;;;;;;;23.60;21.33;;;1.70;99.90;;;;;;5113324;27;20900;-81
2023/01/21 12:15:03;;;;;;;27.00;24.20;;;1.60;99.90;;;;;;5111475;28;20480;-81
2023/01/21 12:17:45;;;;;;;27.43;24.60;;;1.60;99.90;;;;;;5107654;28;20975;-81
2023/01/21 12:20:23;;;;;;;27.37;24.57;;;1.50;99.90;;;;;;5090427;28;20941;-82
2023/01/21 12:23:03;;;;;;;26.80;24.10;;;1.60;99.90;;;;;;5090149;28;20449;-82
2023/01/21 12:25:42;;;;;;;26.33;23.17;;;1.30;99.90;;;;;;5089847;28;20889;-82
2023/01/21 12:28:23;;;;;;;24.73;22.13;;;1.40;99.90;;;;;;5089731;28;20450;-82
2023/01/21 12:30:59;;;;;;;26.17;23.40;;;1.40;99.90;;;;;;5089736;28;20485;-82
2023/01/21 12:33:43;;;;;;;29.70;25.37;;;1.30;99.90;;;;;;5090145;28;20457;-81
2023/01/21 12:36:15;;;;;;;29.47;26.47;;;1.30;99.90;;;;;;5089468;28;20454;-82
2023/01/21 12:38:45;;;;;;;27.87;24.87;;;1.30;99.90;;;;;;5089654;28;20446;-82
2023/01/21 12:41:16;;;;;;;26.73;24.00;;;1.40;99.90;;;;;;5090019;28;20446;-81
2023/01/21 12:43:46;;;;;;;31.40;28.10;;;1.50;99.90;;;;;;5089113;28;20923;-82
2023/01/21 12:46:17;;;;;;;27.87;25.17;;;1.50;99.90;;;;;;5089696;28;20599;-82
2023/01/21 12:48:50;;;;;;;26.83;24.10;;;1.50;99.90;;;;;;5088117;28;20536;-82
2023/01/21 12:51:21;;;;;;;28.97;25.10;;;1.50;99.90;;;;;;5089896;28;20485;-81
2023/01/21 12:53:56;;;;;;;28.07;25.00;;;1.50;99.90;;;;;;5089959;28;20453;-81
2023/01/21 12:56:32;;;;;;;28.07;24.10;;;1.50;99.90;;;;;;5089695;28;20651;-82
2023/01/21 12:59:08;;;;;;;27.87;25.07;;;1.50;99.90;;;;;;5089967;28;20450;-81
2023/01/21 13:01:44;;;;;;;27.27;24.67;;;1.60;99.90;;;;;;5089263;28;20438;-80
2023/01/21 13:04:30;;;;;;;29.13;26.17;;;1.60;99.90;;;;;;5089124;28;20449;-80
2023/01/21 13:07:02;;;;;;;25.23;22.77;;;1.40;99.90;;;;;;5090554;28;20466;-81
2023/01/21 13:09:37;;;;;;;28.07;23.83;;;1.50;99.90;;;;;;5090861;28;20454;-81
2023/01/21 13:12:09;;;;;;;31.37;26.77;;;1.50;99.90;;;;;;5109664;28;20477;-81
2023/01/21 13:14:40;;;;;;;24.10;21.80;;;1.40;99.90;;;;;;5114337;28;20514;-80
2023/01/21 13:17:14;;;;;;;27.03;24.23;;;1.40;99.90;;;;;;5110852;28;20562;-81
2023/01/21 13:19:42;;;;;;;27.23;24.53;;;1.30;99.90;;;;;;5100797;28;20449;-81
2023/01/21 13:22:23;;;;;;;29.17;25.70;;;1.30;99.90;;;;;;5091364;28;20457;-82
2023/01/21 13:25:01;;;;;;;27.80;24.90;;;1.40;99.90;;;;;;5089151;28;20446;-81
2023/01/21 13:27:36;;;;;;;33.43;26.63;;;1.50;99.90;;;;;;5089413;28;20472;-80
2023/01/21 13:30:15;;;;;;;28.27;24.83;;;1.50;99.90;;;;;;5089153;28;20457;-80
2023/01/21 13:32:51;;;;;;;33.60;26.73;;;1.50;99.90;;;;;;5089048;28;20478;-79
2023/01/21 13:35:31;;;;;;;29.83;25.63;;;1.60;99.90;;;;;;5088539;28;20445;-79
2023/01/21 13:38:07;;;;;;;26.57;23.73;;;1.50;99.90;;;;;;5088816;28;20454;-79
2023/01/21 13:40:44;;;;;;;29.00;25.63;;;1.60;99.90;;;;;;5088649;28;20524;-79
2023/01/21 13:43:25;;;;;;;32.83;27.80;;;1.70;99.90;;;;;;5088617;28;20453;-79
2023/01/21 13:46:06;;;;;;;28.80;26.00;;;1.70;99.90;;;;;;5088607;28;20450;-79
2023/01/21 13:48:51;;;;;;;28.47;25.60;;;1.60;99.90;;;;;;5088457;28;20960;-79
2023/01/21 13:51:32;;;;;;;26.37;23.87;;;1.70;99.90;;;;;;5088342;28;20478;-79
2023/01/21 13:54:24;;;;;;;27.83;25.03;;;1.60;99.90;;;;;;5088722;28;20450;-79
2023/01/21 13:57:15;;;;;;;30.00;25.30;;;1.60;99.90;;;;;;5088777;28;20434;-78
2023/01/21 13:59:48;;;;;;;26.87;24.27;;;1.50;99.90;;;;;;5088716;28;20442;-78
2023/01/21 14:02:20;;;;;;;26.77;24.10;;;1.40;99.90;;;;;;5088692;28;20446;-78
2023/01/21 14:04:55;;;;;;;27.67;25.07;;;1.40;99.90;;;;;;5088492;28;20446;-78
2023/01/21 14:07:28;;;;;;;26.93;24.33;;;1.40;99.90;;;;;;5087734;28;20541;-77
2023/01/21 14:09:59;;;;;;;27.03;24.27;;;1.50;99.90;;;;;;5088447;28;20454;-76
2023/01/21 14:12:41;;;;;;;29.33;26.13;;;1.50;99.90;;;;;;5088212;28;20494;-76
2023/01/21 14:15:36;;;;;;;28.93;24.90;;;1.50;99.90;;;;;;5087928;28;20795;-76
2023/01/21 14:18:18;;;;;;;28.40;25.77;;;1.60;99.90;;;;;;5088492;28;20450;-76
2023/01/21 14:21:07;;;;;;;27.27;24.47;;;1.50;99.90;;;;;;5088439;28;20735;-76
2023/01/21 14:23:59;;;;;;;26.80;23.93;;;1.50;99.90;;;;;;5088229;28;20458;-76
2023/01/21 14:26:45;;;;;;;26.70;23.93;;;1.40;99.90;;;;;;5088329;28;20972;-76
2023/01/21 14:29:19;;;;;;;25.07;22.77;;;1.40;99.90;;;;;;5088401;28;20476;-76
2023/01/21 14:31:51;;;;;;;27.87;24.97;;;1.40;99.90;;;;;;5088300;28;20478;-76
2023/01/21 14:34:21;;;;;;;28.87;25.67;;;1.40;99.90;;;;;;5088337;28;21202;-76
2023/01/21 14:36:55;;;;;;;27.47;24.87;;;1.50;99.90;;;;;;5088081;28;20499;-76
2023/01/21 14:39:41;;;;;;;27.80;24.37;;;1.50;99.90;;;;;;5088086;28;20892;-76
2023/01/21 14:42:11;;;;;;;26.73;23.93;;;1.40;99.90;;;;;;5087740;28;21026;-76
2023/01/21 14:44:41;;;;;;;26.27;23.73;;;1.40;99.90;;;;;;5087787;28;20900;-77
2023/01/21 14:47:13;;;;;;;28.57;25.60;;;1.40;99.90;;;;;;5088510;28;20898;-77
2023/01/21 14:49:42;;;;;;;27.47;23.30;;;1.50;99.90;;;;;;5091611;28;20819;-77
2023/01/21 14:52:14;;;;;;;24.90;22.53;;;1.40;99.90;;;;;;5091559;28;20489;-78
2023/01/21 14:54:44;;;;;;;26.73;24.03;;;1.40;99.90;;;;;;5091837;28;20450;-78
2023/01/21 14:57:26;;;;;;;25.73;23.33;;;1.30;99.90;;;;;;5091692;28;20458;-79
2023/01/21 14:59:54;;;;;;;26.40;24.03;;;1.20;99.90;;;;;;5091479;28;20680;-79
2023/01/21 15:02:29;;;;;;;26.67;24.37;;;1.30;99.90;;;;;;5091267;28;20442;-79
2023/01/21 15:04:58;;;;;;;25.23;22.53;;;1.20;99.90;;;;;;5091485;28;20453;-79
2023/01/21 15:07:30;;;;;;;26.70;23.90;;;1.20;99.90;;;;;;5091785;28;20462;-79
2023/01/21 15:10:01;;;;;;;27.53;24.60;;;1.30;99.90;;;;;;5091945;28;20852;-79
2023/01/21 15:12:30;;;;;;;24.33;21.97;;;1.30;99.90;;;;;;5091375;28;20577;-79
2023/01/21 15:14:59;;;;;;;26.50;23.80;;;1.10;99.90;;;;;;5091377;28;20442;-79
2023/01/21 15:17:44;;;;;;;28.00;25.10;;;1.20;99.90;;;;;;5091661;28;20884;-81
2023/01/21 15:20:43;;;;;;;25.67;23.30;;;1.20;99.90;;;;;;5090300;28;20453;-81
2023/01/21 15:23:20;;;;;;;26.33;23.53;;;1.10;99.90;;;;;;5091299;28;20455;-81
2023/01/21 15:26:16;;;;;;;28.97;25.87;;;1.10;99.90;;;;;;5091505;28;20450;-80
2023/01/21 15:28:44;;;;;;;25.80;23.40;;;1.10;99.90;;;;;;5091055;28;20438;-81
2023/01/21 15:31:33;;;;;;;28.70;25.97;;;1.10;99.90;;;;;;5091338;28;20450;-81
2023/01/21 15:34:03;;;;;;;26.90;24.40;;;1.10;99.90;;;;;;5091545;28;20810;-81
2023/01/21 15:36:33;;;;;;;25.30;22.90;;;1.10;99.90;;;;;;5092230;28;20446;-81
2023/01/21 15:39:01;;;;;;;26.67;24.20;;;1.10;99.90;;;;;;5091210;28;20812;-79
2023/01/21 15:41:42;;;;;;;28.07;25.07;;;1.10;99.90;;;;;;5091057;28;20446;-80
2023/01/21 15:44:38;;;;;;;27.23;24.57;;;1.10;99.90;;;;;;5091158;28;20446;-81
2023/01/21 15:47:17;;;;;;;26.97;24.43;;;1.10;99.90;;;;;;5091033;28;20851;-80
2023/01/21 15:49:54;;;;;;;24.73;22.40;;;1.00;99.90;;;;;;5090815;28;20445;-80
2023/01/21 15:52:35;;;;;;;24.90;22.57;;;1.00;99.90;;;;;;5090667;28;20482;-81
2023/01/21 15:55:24;;;;;;;25.43;23.00;;;0.90;99.90;;;;;;5091048;28;20861;-80
2023/01/21 15:57:59;;;;;;;26.60;23.97;;;0.90;99.90;;;;;;5090618;28;20937;-81
2023/01/21 16:00:37;;;;;;;27.10;24.40;;;1.00;99.90;;;;;;5090101;28;20454;-80
2023/01/21 16:03:16;;;;;;;26.20;23.80;;;1.00;99.90;;;;;;5090819;28;20446;-81
2023/01/21 16:05:50;;;;;;;25.30;22.77;;;1.10;99.90;;;;;;5090302;28;21007;-81
2023/01/21 16:08:41;;;;;;;26.00;23.30;;;1.00;99.90;;;;;;5091840;28;20446;-82
2023/01/21 16:11:25;;;;;;;25.73;23.33;;;1.00;99.90;;;;;;5095378;28;20517;-81
2023/01/21 16:14:04;;;;;;;28.17;23.40;;;1.00;99.90;;;;;;5101199;28;20509;-81
2023/01/21 16:16:46;;;;;;;25.10;22.67;;;1.10;99.90;;;;;;5115800;28;20477;-82
2023/01/21 16:19:15;;;;;;;26.13;22.10;;;1.10;99.90;;;;;;5111317;28;20502;-80
2023/01/21 16:21:45;;;;;;;24.03;21.73;;;1.20;99.90;;;;;;5106210;28;20439;-82
2023/01/21 16:24:15;;;;;;;24.60;22.00;;;1.20;99.90;;;;;;5097472;28;20446;-82
2023/01/21 16:26:42;;;;;;;24.20;21.60;;;1.20;99.90;;;;;;5090518;28;20450;-82
2023/01/21 16:29:12;;;;;;;21.90;20.10;;;1.20;99.90;;;;;;5089898;28;20454;-81
2023/01/21 16:31:46;;;;;;;23.80;21.60;;;1.20;99.90;;;;;;5089857;28;20537;-81
2023/01/21 16:34:14;;;;;;;22.70;20.50;;;1.20;99.90;;;;;;5089787;28;20454;-81
2023/01/21 16:36:40;;;;;;;23.70;21.40;;;1.20;99.90;;;;;;5089920;28;20447;-82
2023/01/21 16:39:09;;;;;;;22.07;20.07;;;1.20;99.90;;;;;;5089815;28;21597;-81
2023/01/21 16:41:36;;;;;;;22.53;20.23;;;1.30;99.90;;;;;;5089821;28;20446;-82
2023/01/21 16:44:05;;;;;;;23.23;21.03;;;1.30;99.90;;;;;;5089749;28;20964;-82
2023/01/21 16:46:39;;;;;;;22.77;20.63;;;1.20;99.90;;;;;;5090222;28;20457;-81
2023/01/21 16:49:13;;;;;;;22.40;20.33;;;1.20;99.90;;;;;;5089362;28;20480;-81
2023/01/21 16:51:43;;;;;;;21.93;19.77;;;1.20;99.90;;;;;;5089425;28;20449;-81
2023/01/21 16:54:28;;;;;;;23.83;19.83;;;1.20;99.90;;;;;;5089285;28;20486;-81
2023/01/21 16:56:58;;;;;;;22.37;20.03;;;1.20;99.90;;;;;;5089162;28;20844;-82
2023/01/21 16:59:30;;;;;;;22.23;20.30;;;1.20;99.90;;;;;;5089120;28;20525;-81
2023/01/21 17:01:59;;;;;;;21.97;19.97;;;1.10;99.90;;;;;;5089420;28;20450;-81
2023/01/21 17:04:28;;;;;;;21.60;19.50;;;1.10;99.90;;;;;;5089262;28;20454;-80
2023/01/21 17:06:54;;;;;;;21.13;19.13;;;1.10;99.90;;;;;;5088899;28;20470;-81
2023/01/21 17:09:27;;;;;;;23.83;21.47;;;1.10;99.90;;;;;;5088590;28;20446;-81
2023/01/21 17:11:55;;;;;;;23.70;21.50;;;1.10;99.90;;;;;;5088563;28;20504;-81
2023/01/21 17:14:25;;;;;;;22.53;20.37;;;1.10;99.90;;;;;;5088867;28;20788;-81
2023/01/21 17:16:53;;;;;;;21.07;19.00;;;1.10;99.90;;;;;;5089046;28;20446;-81
2023/01/21 17:19:25;;;;;;;21.00;19.00;;;1.00;99.90;;;;;;5089098;28;20749;-81
2023/01/21 17:21:55;;;;;;;22.10;20.10;;;1.00;99.90;;;;;;5089071;28;20813;-82
2023/01/21 17:24:26;;;;;;;21.47;19.40;;;1.10;99.90;;;;;;5088981;28;20809;-81
2023/01/21 17:26:56;;;;;;;22.07;19.90;;;1.10;99.90;;;;;;5088742;28;20870;-81
2023/01/21 17:29:27;;;;;;;21.40;19.40;;;1.10;99.90;;;;;;5088568;28;20450;-81
2023/01/21 17:31:55;;;;;;;23.53;21.07;;;1.00;99.90;;;;;;5088753;28;20764;-81
2023/01/21 17:34:25;;;;;;;20.00;18.27;;;1.10;99.90;;;;;;5088869;28;20518;-81
2023/01/21 17:36:54;;;;;;;21.43;19.43;;;1.10;99.90;;;;;;5088878;28;20453;-82
2023/01/21 17:39:59;;;;;;;21.93;19.93;;;1.00;99.90;;;;;;5088739;28;20446;-80
2023/01/21 17:42:30;;;;;;;22.40;20.20;;;1.00;99.90;;;;;;5088462;28;20945;-80
2023/01/21 17:45:00;;;;;;;22.00;19.83;;;1.00;99.90;;;;;;5088504;28;20503;-79
2023/01/21 17:47:30;;;;;;;22.37;20.47;;;1.10;99.90;;;;;;5088586;28;20948;-81
2023/01/21 17:50:02;;;;;;;21.30;19.20;;;1.10;99.90;;;;;;5089541;28;20491;-81
2023/01/21 17:52:29;;;;;;;21.33;19.47;;;1.20;99.90;;;;;;5089322;28;20474;-81
2023/01/21 17:55:26;;;;;;;20.53;18.63;;;1.10;99.90;;;;;;5088912;28;20450;-81
2023/01/21 17:57:54;;;;;;;21.50;19.37;;;1.20;99.90;;;;;;5089472;28;20450;-80
